sensor_id;sensor_type;location;lat;lon;timestamp;pressure;altitude;pressure_sealevel;temperature;humidity
19590;BME280;12231;42.782;23.388;2023-03-16T00:00:43;94706.66;;;4.30;100.00
19590;BME280;12231;42.782;23.388;2023-03-16T00:03:09;94709.00;;;4.17;100.00
19590;BME280;12231;42.782;23.388;2023-03-16T00:05:36;94715.06;;;4.32;100.00
19590;BME280;12231;42.782;23.388;2023-03-16T00:08:02;94710.84;;;4.31;100.00
19590;BME280;12231;42.782;23.388;2023-03-16T00:10:28;94712.97;;;4.23;100.00
19590;BME280;12231;42.782;23.388;2023-03-16T00:12:53;94711.91;;;4.27;100.00
19590;BME280;12231;42.782;23.388;2023-03-16T00:15:19;94718.22;;;4.20;100.00
19590;BME280;12231;42.782;23.388;2023-03-16T00:17:45;94718.84;;;4.08;100.00
19590;BME280;12231;42.782;23.388;2023-03-16T00:20:14;94722.09;;;4.10;100.00
19590;BME280;12231;42.782;23.388;2023-03-16T00:22:39;94721.38;;;4.08;100.00
19590;BME280;12231;42.782;23.388;2023-03-16T00:25:07;94732.91;;;3.98;100.00
19590;BME280;12231;42.782;23.388;2023-03-16T00:27:32;94721.38;;;4.08;100.00
19590;BME280;12231;42.782;23.388;2023-03-16T00:29:58;94729.00;;;3.91;100.00
19590;BME280;12231;42.782;23.388;2023-03-16T00:32:28;94731.25;;;3.97;100.00
19590;BME280;12231;42.782;23.388;2023-03-16T00:34:54;94732.75;;;4.01;100.00
19590;BME280;12231;42.782;23.388;2023-03-16T00:37:21;94733.88;;;3.95;100.00
19590;BME280;12231;42.782;23.388;2023-03-16T00:39:48;94740.41;;;4.01;100.00
19590;BME280;12231;42.782;23.388;2023-03-16T00:42:15;94737.72;;;4.04;100.00
19590;BME280;12231;42.782;23.388;2023-03-16T00:44:41;94745.81;;;3.95;100.00
19590;BME280;12231;42.782;23.388;2023-03-16T00:47:07;94747.00;;;3.88;100.00
19590;BME280;12231;42.782;23.388;2023-03-16T00:49:34;94747.06;;;4.03;100.00
19590;BME280;12231;42.782;23.388;2023-03-16T00:52:00;94733.41;;;3.70;100.00
19590;BME280;12231;42.782;23.388;2023-03-16T00:54:26;94747.16;;;3.85;100.00
19590;BME280;12231;42.782;23.388;2023-03-16T00:56:52;94748.09;;;3.82;100.00
19590;BME280;12231;42.782;23.388;2023-03-16T00:59:18;94745.47;;;3.67;100.00
19590;BME280;12231;42.782;23.388;2023-03-16T01:01:44;94745.41;;;3.50;100.00
19590;BME280;12231;42.782;23.388;2023-03-16T01:04:11;94739.34;;;3.52;100.00
19590;BME280;12231;42.782;23.388;2023-03-16T01:06:36;94746.81;;;3.74;100.00
19590;BME280;12231;42.782;23.388;2023-03-16T01:09:02;94753.09;;;3.67;100.00
19590;BME280;12231;42.782;23.388;2023-03-16T01:11:30;94746.06;;;3.72;100.00
19590;BME280;12231;42.782;23.388;2023-03-16T01:13:58;94752.47;;;3.80;100.00
19590;BME280;12231;42.782;23.388;2023-03-16T01:16:24;94749.69;;;3.85;100.00
19590;BME280;12231;42.782;23.388;2023-03-16T01:18:50;94749.38;;;3.74;100.00
19590;BME280;12231;42.782;23.388;2023-03-16T01:21:20;94743.97;;;3.80;100.00
19590;BME280;12231;42.782;23.388;2023-03-16T01:23:46;94748.91;;;3.66;100.00
19590;BME280;12231;42.782;23.388;2023-03-16T01:26:12;94747.25;;;3.65;100.00
19590;BME280;12231;42.782;23.388;2023-03-16T01:28:39;94754.41;;;3.57;100.00
19590;BME280;12231;42.782;23.388;2023-03-16T01:31:06;94757.72;;;3.59;100.00
19590;BME280;12231;42.782;23.388;2023-03-16T01:33:33;94755.88;;;3.44;100.00
19590;BME280;12231;42.782;23.388;2023-03-16T01:36:05;94757.47;;;3.46;100.00
19590;BME280;12231;42.782;23.388;2023-03-16T01:38:31;94750.44;;;3.33;100.00
19590;BME280;12231;42.782;23.388;2023-03-16T01:40:58;94752.16;;;3.32;100.00
19590;BME280;12231;42.782;23.388;2023-03-16T01:43:25;94764.19;;;3.29;100.00
19590;BME280;12231;42.782;23.388;2023-03-16T01:51:05;94771.38;;;3.02;100.00
19590;BME280;12231;42.782;23.388;2023-03-16T01:53:32;94779.06;;;3.01;100.00
19590;BME280;12231;42.782;23.388;2023-03-16T01:56:00;94778.22;;;3.00;100.00
19590;BME280;12231;42.782;23.388;2023-03-16T01:58:29;94777.53;;;2.78;100.00
19590;BME280;12231;42.782;23.388;2023-03-16T02:00:55;94780.44;;;2.89;100.00
19590;BME280;12231;42.782;23.388;2023-03-16T02:03:23;94780.56;;;2.66;100.00
19590;BME280;12231;42.782;23.388;2023-03-16T02:05:58;94790.19;;;2.59;100.00
19590;BME280;12231;42.782;23.388;2023-03-16T02:08:26;94790.06;;;2.62;100.00
19590;BME280;12231;42.782;23.388;2023-03-16T02:10:54;94796.03;;;2.61;100.00
19590;BME280;12231;42.782;23.388;2023-03-16T02:13:24;94802.31;;;2.53;100.00
19590;BME280;12231;42.782;23.388;2023-03-16T02:15:51;94806.28;;;2.60;100.00
19590;BME280;12231;42.782;23.388;2023-03-16T02:18:18;94811.22;;;2.63;100.00
19590;BME280;12231;42.782;23.388;2023-03-16T02:20:51;94814.41;;;2.48;100.00
19590;BME280;12231;42.782;23.388;2023-03-16T02:23:22;94820.31;;;2.48;100.00
19590;BME280;12231;42.782;23.388;2023-03-16T02:26:02;94815.09;;;2.51;100.00
19590;BME280;12231;42.782;23.388;2023-03-16T02:31:17;94814.91;;;2.56;100.00
19590;BME280;12231;42.782;23.388;2023-03-16T02:33:44;94823.09;;;2.42;100.00
19590;BME280;12231;42.782;23.388;2023-03-16T02:36:13;94820.31;;;2.48;100.00
19590;BME280;12231;42.782;23.388;2023-03-16T02:38:39;94826.91;;;2.52;100.00
19590;BME280;12231;42.782;23.388;2023-03-16T02:41:13;94829.47;;;2.32;100.00
19590;BME280;12231;42.782;23.388;2023-03-16T02:43:52;94831.56;;;2.43;100.00
19590;BME280;12231;42.782;23.388;2023-03-16T02:46:22;94842.97;;;2.13;100.00
19590;BME280;12231;42.782;23.388;2023-03-16T02:49:06;94832.88;;;2.31;100.00
19590;BME280;12231;42.782;23.388;2023-03-16T02:51:35;94841.03;;;2.39;100.00
19590;BME280;12231;42.782;23.388;2023-03-16T02:54:00;94843.44;;;2.42;100.00
19590;BME280;12231;42.782;23.388;2023-03-16T02:56:25;94839.38;;;2.38;100.00
19590;BME280;12231;42.782;23.388;2023-03-16T02:58:51;94845.22;;;2.40;100.00
19590;BME280;12231;42.782;23.388;2023-03-16T03:01:16;94843.09;;;2.30;100.00
19590;BME280;12231;42.782;23.388;2023-03-16T03:03:42;94839.44;;;2.37;100.00
19590;BME280;12231;42.782;23.388;2023-03-16T03:06:08;94841.91;;;2.38;100.00
19590;BME280;12231;42.782;23.388;2023-03-16T03:08:33;94847.91;;;2.37;100.00
19590;BME280;12231;42.782;23.388;2023-03-16T03:10:59;94855.28;;;2.22;100.00
19590;BME280;12231;42.782;23.388;2023-03-16T03:13:24;94856.84;;;2.26;100.00
19590;BME280;12231;42.782;23.388;2023-03-16T03:15:50;94861.56;;;2.13;100.00
19590;BME280;12231;42.782;23.388;2023-03-16T03:18:16;94857.69;;;2.05;100.00
19590;BME280;12231;42.782;23.388;2023-03-16T03:20:42;94865.47;;;2.00;100.00
19590;BME280;12231;42.782;23.388;2023-03-16T03:23:08;94857.75;;;2.03;100.00
19590;BME280;12231;42.782;23.388;2023-03-16T03:25:33;94860.63;;;2.16;100.00
19590;BME280;12231;42.782;23.388;2023-03-16T03:27:59;94865.97;;;2.10;100.00
19590;BME280;12231;42.782;23.388;2023-03-16T03:30:26;94863.03;;;2.19;100.00
19590;BME280;12231;42.782;23.388;2023-03-16T03:32:52;94868.53;;;2.08;100.00
19590;BME280;12231;42.782;23.388;2023-03-16T03:35:17;94867.28;;;2.18;100.00
19590;BME280;12231;42.782;23.388;2023-03-16T03:37:43;94868.91;;;2.21;100.00
19590;BME280;12231;42.782;23.388;2023-03-16T03:40:11;94877.97;;;2.26;100.00
19590;BME280;12231;42.782;23.388;2023-03-16T03:42:37;94871.56;;;2.18;100.00
19590;BME280;12231;42.782;23.388;2023-03-16T03:45:03;94878.16;;;2.22;100.00
19590;BME280;12231;42.782;23.388;2023-03-16T03:47:29;94880.78;;;2.20;100.00
19590;BME280;12231;42.782;23.388;2023-03-16T03:49:55;94888.28;;;2.23;100.00
19590;BME280;12231;42.782;23.388;2023-03-16T03:52:21;94893.81;;;2.33;100.00
19590;BME280;12231;42.782;23.388;2023-03-16T03:54:46;94898.75;;;2.57;100.00
19590;BME280;12231;42.782;23.388;2023-03-16T03:57:11;94908.00;;;2.17;100.00
19590;BME280;12231;42.782;23.388;2023-03-16T03:59:37;94910.16;;;2.06;100.00
19590;BME280;12231;42.782;23.388;2023-03-16T04:02:08;94910.63;;;2.15;100.00
19590;BME280;12231;42.782;23.388;2023-03-16T04:04:34;94905.66;;;2.12;100.00
19590;BME280;12231;42.782;23.388;2023-03-16T04:07:00;94909.31;;;2.27;100.00
19590;BME280;12231;42.782;23.388;2023-03-16T04:09:25;94914.34;;;2.07;100.00
19590;BME280;12231;42.782;23.388;2023-03-16T04:11:51;94915.34;;;2.03;100.00
19590;BME280;12231;42.782;23.388;2023-03-16T04:14:17;94914.72;;;2.19;100.00
19590;BME280;12231;42.782;23.388;2023-03-16T04:16:42;94913.75;;;2.22;100.00
19590;BME280;12231;42.782;23.388;2023-03-16T04:19:09;94912.69;;;2.27;100.00
19590;BME280;12231;42.782;23.388;2023-03-16T04:21:36;94919.66;;;2.22;100.00
19590;BME280;12231;42.782;23.388;2023-03-16T04:24:02;94925.22;;;2.10;100.00
19590;BME280;12231;42.782;23.388;2023-03-16T04:26:30;94931.75;;;1.94;100.00
19590;BME280;12231;42.782;23.388;2023-03-16T04:28:56;94929.81;;;2.01;100.00
19590;BME280;12231;42.782;23.388;2023-03-16T04:31:21;94944.06;;;2.05;100.00
19590;BME280;12231;42.782;23.388;2023-03-16T04:33:46;94933.25;;;2.21;100.00
19590;BME280;12231;42.782;23.388;2023-03-16T04:36:12;94939.16;;;2.22;100.00
19590;BME280;12231;42.782;23.388;2023-03-16T04:38:38;94941.00;;;2.18;100.00
19590;BME280;12231;42.782;23.388;2023-03-16T04:41:04;94944.78;;;2.30;100.00
19590;BME280;12231;42.782;23.388;2023-03-16T04:43:30;94942.47;;;2.24;100.00
19590;BME280;12231;42.782;23.388;2023-03-16T04:46:02;94949.91;;;2.07;100.00
19590;BME280;12231;42.782;23.388;2023-03-16T04:48:29;94961.31;;;2.18;100.00
19590;BME280;12231;42.782;23.388;2023-03-16T04:50:54;94956.44;;;2.35;100.00
19590;BME280;12231;42.782;23.388;2023-03-16T04:53:20;94964.88;;;2.36;100.00
19590;BME280;12231;42.782;23.388;2023-03-16T04:55:46;94964.13;;;2.34;100.00
19590;BME280;12231;42.782;23.388;2023-03-16T04:58:12;94967.78;;;2.27;100.00
19590;BME280;12231;42.782;23.388;2023-03-16T05:00:40;94976.19;;;2.29;100.00
19590;BME280;12231;42.782;23.388;2023-03-16T05:03:07;94981.81;;;2.37;100.00
19590;BME280;12231;42.782;23.388;2023-03-16T05:05:38;94974.81;;;2.20;100.00
19590;BME280;12231;42.782;23.388;2023-03-16T05:08:04;94981.25;;;2.29;100.00
19590;BME280;12231;42.782;23.388;2023-03-16T05:10:31;94991.97;;;2.37;100.00
19590;BME280;12231;42.782;23.388;2023-03-16T05:12:58;94989.19;;;2.43;100.00
19590;BME280;12231;42.782;23.388;2023-03-16T05:15:23;94984.56;;;2.74;100.00
19590;BME280;12231;42.782;23.388;2023-03-16T05:17:48;94985.53;;;3.13;100.00
19590;BME280;12231;42.782;23.388;2023-03-16T05:20:14;94990.50;;;2.95;100.00
19590;BME280;12231;42.782;23.388;2023-03-16T05:22:41;94991.53;;;3.11;100.00
19590;BME280;12231;42.782;23.388;2023-03-16T05:25:08;94988.47;;;3.03;100.00
19590;BME280;12231;42.782;23.388;2023-03-16T05:27:42;94997.50;;;2.90;100.00
19590;BME280;12231;42.782;23.388;2023-03-16T05:30:09;95001.47;;;2.75;100.00
19590;BME280;12231;42.782;23.388;2023-03-16T05:32:35;95005.34;;;2.42;100.00
19590;BME280;12231;42.782;23.388;2023-03-16T05:35:01;95016.28;;;2.44;100.00
19590;BME280;12231;42.782;23.388;2023-03-16T05:37:27;95011.03;;;2.48;100.00
19590;BME280;12231;42.782;23.388;2023-03-16T05:39:53;95018.34;;;2.56;100.00
19590;BME280;12231;42.782;23.388;2023-03-16T05:42:18;95022.19;;;2.44;100.00
19590;BME280;12231;42.782;23.388;2023-03-16T05:44:44;95021.97;;;2.50;100.00
19590;BME280;12231;42.782;23.388;2023-03-16T05:47:10;95030.53;;;2.48;100.00
19590;BME280;12231;42.782;23.388;2023-03-16T05:49:35;95035.84;;;2.63;100.00
19590;BME280;12231;42.782;23.388;2023-03-16T05:52:01;95029.00;;;2.87;100.00
19590;BME280;12231;42.782;23.388;2023-03-16T05:54:26;95024.81;;;2.86;100.00
19590;BME280;12231;42.782;23.388;2023-03-16T05:56:51;95025.69;;;2.85;100.00
19590;BME280;12231;42.782;23.388;2023-03-16T05:59:17;95041.19;;;2.79;100.00
19590;BME280;12231;42.782;23.388;2023-03-16T06:01:42;95048.88;;;2.77;100.00
19590;BME280;12231;42.782;23.388;2023-03-16T06:04:08;95046.16;;;2.82;100.00
19590;BME280;12231;42.782;23.388;2023-03-16T06:06:33;95052.84;;;2.85;100.00
19590;BME280;12231;42.782;23.388;2023-03-16T06:08:58;95047.53;;;2.91;100.00
19590;BME280;12231;42.782;23.388;2023-03-16T06:11:25;95051.59;;;2.95;100.00
19590;BME280;12231;42.782;23.388;2023-03-16T06:13:50;95049.34;;;2.87;100.00
19590;BME280;12231;42.782;23.388;2023-03-16T06:16:16;95056.44;;;2.79;100.00
19590;BME280;12231;42.782;23.388;2023-03-16T06:18:41;95060.38;;;2.88;100.00
19590;BME280;12231;42.782;23.388;2023-03-16T06:21:07;95051.38;;;3.01;100.00
19590;BME280;12231;42.782;23.388;2023-03-16T06:23:32;95058.50;;;3.13;100.00
19590;BME280;12231;42.782;23.388;2023-03-16T06:25:59;95064.78;;;3.04;100.00
19590;BME280;12231;42.782;23.388;2023-03-16T06:28:26;95064.03;;;3.02;100.00
19590;BME280;12231;42.782;23.388;2023-03-16T06:30:56;95062.41;;;3.21;100.00
19590;BME280;12231;42.782;23.388;2023-03-16T06:33:22;95078.38;;;2.81;100.00
19590;BME280;12231;42.782;23.388;2023-03-16T06:35:48;95071.22;;;3.13;100.00
19590;BME280;12231;42.782;23.388;2023-03-16T06:38:14;95084.38;;;3.02;100.00
19590;BME280;12231;42.782;23.388;2023-03-16T06:40:39;95092.34;;;2.93;100.00
19590;BME280;12231;42.782;23.388;2023-03-16T06:43:05;95084.25;;;3.05;100.00
19590;BME280;12231;42.782;23.388;2023-03-16T06:45:31;95087.75;;;3.03;100.00
19590;BME280;12231;42.782;23.388;2023-03-16T06:47:56;95092.94;;;3.00;100.00
19590;BME280;12231;42.782;23.388;2023-03-16T06:50:22;95095.75;;;3.15;100.00
19590;BME280;12231;42.782;23.388;2023-03-16T06:52:47;95102.13;;;3.25;100.00
19590;BME280;12231;42.782;23.388;2023-03-16T06:55:13;95105.69;;;3.21;100.00
19590;BME280;12231;42.782;23.388;2023-03-16T06:57:39;95103.97;;;3.00;100.00
19590;BME280;12231;42.782;23.388;2023-03-16T07:00:07;95100.13;;;3.33;100.00
19590;BME280;12231;42.782;23.388;2023-03-16T07:02:33;95106.84;;;3.34;100.00
19590;BME280;12231;42.782;23.388;2023-03-16T07:05:00;95117.16;;;3.10;100.00
19590;BME280;12231;42.782;23.388;2023-03-16T07:07:26;95115.13;;;2.96;100.00
19590;BME280;12231;42.782;23.388;2023-03-16T07:09:51;95124.56;;;3.16;100.00
19590;BME280;12231;42.782;23.388;2023-03-16T07:12:17;95123.84;;;3.34;100.00
19590;BME280;12231;42.782;23.388;2023-03-16T07:14:43;95130.66;;;3.12;100.00
19590;BME280;12231;42.782;23.388;2023-03-16T07:17:08;95132.78;;;3.44;100.00
19590;BME280;12231;42.782;23.388;2023-03-16T07:19:33;95137.78;;;3.25;100.00
19590;BME280;12231;42.782;23.388;2023-03-16T07:21:59;95138.00;;;3.41;100.00
19590;BME280;12231;42.782;23.388;2023-03-16T07:24:26;95133.25;;;3.53;100.00
19590;BME280;12231;42.782;23.388;2023-03-16T07:26:52;95141.13;;;3.47;100.00
19590;BME280;12231;42.782;23.388;2023-03-16T07:29:17;95144.88;;;3.39;100.00
19590;BME280;12231;42.782;23.388;2023-03-16T07:31:43;95139.44;;;3.48;100.00
19590;BME280;12231;42.782;23.388;2023-03-16T07:34:08;95142.88;;;3.67;100.00
19590;BME280;12231;42.782;23.388;2023-03-16T07:36:34;95156.06;;;3.35;100.00
19590;BME280;12231;42.782;23.388;2023-03-16T07:38:59;95156.59;;;3.43;100.00
19590;BME280;12231;42.782;23.388;2023-03-16T07:41:25;95158.25;;;3.44;100.00
19590;BME280;12231;42.782;23.388;2023-03-16T07:43:51;95155.22;;;3.56;100.00
19590;BME280;12231;42.782;23.388;2023-03-16T07:46:17;95154.47;;;3.32;100.00
19590;BME280;12231;42.782;23.388;2023-03-16T07:48:44;95155.06;;;3.80;100.00
19590;BME280;12231;42.782;23.388;2023-03-16T07:51:10;95152.44;;;4.02;100.00
19590;BME280;12231;42.782;23.388;2023-03-16T07:53:37;95158.13;;;3.88;100.00
19590;BME280;12231;42.782;23.388;2023-03-16T07:56:03;95157.47;;;4.03;100.00
19590;BME280;12231;42.782;23.388;2023-03-16T07:58:29;95163.63;;;3.99;100.00
19590;BME280;12231;42.782;23.388;2023-03-16T08:00:56;95161.50;;;3.89;100.00
19590;BME280;12231;42.782;23.388;2023-03-16T08:03:23;95156.84;;;4.18;100.00
19590;BME280;12231;42.782;23.388;2023-03-16T08:05:48;95162.03;;;4.17;100.00
19590;BME280;12231;42.782;23.388;2023-03-16T08:08:14;95157.66;;;4.39;100.00
19590;BME280;12231;42.782;23.388;2023-03-16T08:10:40;95157.66;;;4.39;100.00
19590;BME280;12231;42.782;23.388;2023-03-16T08:13:05;95161.66;;;4.45;100.00
19590;BME280;12231;42.782;23.388;2023-03-16T08:15:32;95165.56;;;4.53;100.00
19590;BME280;12231;42.782;23.388;2023-03-16T08:17:58;95163.22;;;4.49;100.00
19590;BME280;12231;42.782;23.388;2023-03-16T08:20:26;95165.16;;;4.62;100.00
19590;BME280;12231;42.782;23.388;2023-03-16T08:22:52;95178.63;;;4.84;100.00
19590;BME280;12231;42.782;23.388;2023-03-16T08:25:18;95182.03;;;5.03;100.00
19590;BME280;12231;42.782;23.388;2023-03-16T08:27:44;95182.56;;;4.91;100.00
19590;BME280;12231;42.782;23.388;2023-03-16T08:30:11;95199.06;;;5.03;100.00
19590;BME280;12231;42.782;23.388;2023-03-16T08:32:37;95194.41;;;4.74;100.00
19590;BME280;12231;42.782;23.388;2023-03-16T08:35:05;95194.41;;;4.55;100.00
19590;BME280;12231;42.782;23.388;2023-03-16T08:37:30;95193.94;;;4.84;100.00
19590;BME280;12231;42.782;23.388;2023-03-16T08:39:56;95192.97;;;4.87;100.00
19590;BME280;12231;42.782;23.388;2023-03-16T08:42:22;95186.38;;;4.83;100.00
19590;BME280;12231;42.782;23.388;2023-03-16T08:44:47;95196.50;;;4.84;100.00
19590;BME280;12231;42.782;23.388;2023-03-16T08:47:13;95202.31;;;5.06;100.00
19590;BME280;12231;42.782;23.388;2023-03-16T08:49:39;95209.69;;;4.55;100.00
19590;BME280;12231;42.782;23.388;2023-03-16T08:52:06;95210.41;;;4.77;100.00
19590;BME280;12231;42.782;23.388;2023-03-16T08:54:34;95215.53;;;4.57;100.00
19590;BME280;12231;42.782;23.388;2023-03-16T08:57:00;95219.19;;;4.90;100.00
19590;BME280;12231;42.782;23.388;2023-03-16T08:59:25;95224.88;;;4.97;100.00
19590;BME280;12231;42.782;23.388;2023-03-16T09:01:50;95224.66;;;5.01;100.00
19590;BME280;12231;42.782;23.388;2023-03-16T09:04:16;95212.06;;;4.60;100.00
19590;BME280;12231;42.782;23.388;2023-03-16T09:06:42;95220.91;;;4.71;100.00
19590;BME280;12231;42.782;23.388;2023-03-16T09:09:07;95219.84;;;4.95;100.00
19590;BME280;12231;42.782;23.388;2023-03-16T09:11:34;95227.16;;;5.03;100.00
19590;BME280;12231;42.782;23.388;2023-03-16T09:14:00;95229.25;;;5.13;100.00
19590;BME280;12231;42.782;23.388;2023-03-16T09:16:25;95233.53;;;4.74;100.00
19590;BME280;12231;42.782;23.388;2023-03-16T09:18:52;95231.97;;;4.90;100.00
19590;BME280;12231;42.782;23.388;2023-03-16T09:21:18;95229.41;;;4.90;100.00
19590;BME280;12231;42.782;23.388;2023-03-16T09:23:44;95236.09;;;4.93;100.00
19590;BME280;12231;42.782;23.388;2023-03-16T09:26:10;95239.41;;;4.76;100.00
19590;BME280;12231;42.782;23.388;2023-03-16T09:28:37;95231.88;;;5.12;100.00
19590;BME280;12231;42.782;23.388;2023-03-16T09:31:05;95243.94;;;4.70;100.00
19590;BME280;12231;42.782;23.388;2023-03-16T09:33:32;95240.69;;;4.66;100.00
19590;BME280;12231;42.782;23.388;2023-03-16T09:35:58;95237.84;;;4.92;100.00
19590;BME280;12231;42.782;23.388;2023-03-16T09:38:25;95239.84;;;4.86;100.00
19590;BME280;12231;42.782;23.388;2023-03-16T09:40:57;95236.72;;;4.79;100.00
19590;BME280;12231;42.782;23.388;2023-03-16T09:48:46;95252.09;;;5.35;100.00
19590;BME280;12231;42.782;23.388;2023-03-16T09:51:21;95252.44;;;5.09;100.00
19590;BME280;12231;42.782;23.388;2023-03-16T09:53:49;95260.41;;;5.01;100.00
19590;BME280;12231;42.782;23.388;2023-03-16T09:56:27;95252.56;;;5.24;100.00
19590;BME280;12231;42.782;23.388;2023-03-16T09:58:54;95256.44;;;5.33;100.00
19590;BME280;12231;42.782;23.388;2023-03-16T10:05:03;95259.41;;;5.42;100.00
19590;BME280;12231;42.782;23.388;2023-03-16T10:10:13;95256.91;;;5.78;100.00
19590;BME280;12231;42.782;23.388;2023-03-16T10:12:46;95255.09;;;5.99;100.00
19590;BME280;12231;42.782;23.388;2023-03-16T10:15:18;95262.78;;;5.80;100.00
19590;BME280;12231;42.782;23.388;2023-03-16T10:18:02;95253.66;;;5.93;100.00
19590;BME280;12231;42.782;23.388;2023-03-16T10:20:32;95265.59;;;6.11;100.00
19590;BME280;12231;42.782;23.388;2023-03-16T10:22:58;95263.00;;;5.76;100.00
19590;BME280;12231;42.782;23.388;2023-03-16T10:25:58;95263.13;;;5.54;100.00
19590;BME280;12231;42.782;23.388;2023-03-16T10:28:26;95260.88;;;5.85;100.00
19590;BME280;12231;42.782;23.388;2023-03-16T10:30:54;95261.97;;;6.15;99.84
19590;BME280;12231;42.782;23.388;2023-03-16T10:33:31;95266.84;;;6.20;99.02
19590;BME280;12231;42.782;23.388;2023-03-16T10:39:11;95258.00;;;5.73;100.00
19590;BME280;12231;42.782;23.388;2023-03-16T10:41:40;95260.84;;;6.21;98.51
19590;BME280;12231;42.782;23.388;2023-03-16T10:46:43;95254.06;;;6.54;98.70
19590;BME280;12231;42.782;23.388;2023-03-16T10:49:39;95260.78;;;7.06;95.90
19590;BME280;12231;42.782;23.388;2023-03-16T10:52:17;95257.94;;;6.95;94.02
19590;BME280;12231;42.782;23.388;2023-03-16T10:54:50;95260.06;;;7.20;93.38
19590;BME280;12231;42.782;23.388;2023-03-16T10:59:58;95267.22;;;7.61;92.21
19590;BME280;12231;42.782;23.388;2023-03-16T11:02:31;95265.97;;;7.37;92.86
19590;BME280;12231;42.782;23.388;2023-03-16T11:04:57;95265.38;;;7.32;92.94
19590;BME280;12231;42.782;23.388;2023-03-16T11:07:23;95264.06;;;7.25;93.13
19590;BME280;12231;42.782;23.388;2023-03-16T11:09:54;95268.41;;;7.56;92.69
19590;BME280;12231;42.782;23.388;2023-03-16T11:12:27;95268.72;;;7.50;91.06
19590;BME280;12231;42.782;23.388;2023-03-16T11:15:00;95267.13;;;6.99;93.95
19590;BME280;12231;42.782;23.388;2023-03-16T11:17:38;95264.06;;;6.92;95.23
19590;BME280;12231;42.782;23.388;2023-03-16T11:20:11;95258.78;;;6.95;94.60
19590;BME280;12231;42.782;23.388;2023-03-16T11:22:39;95259.38;;;7.33;94.01
19590;BME280;12231;42.782;23.388;2023-03-16T11:25:13;95258.84;;;7.27;94.62
19590;BME280;12231;42.782;23.388;2023-03-16T11:28:15;95258.34;;;7.20;94.17
19590;BME280;12231;42.782;23.388;2023-03-16T11:33:51;95269.28;;;7.39;93.51
19590;BME280;12231;42.782;23.388;2023-03-16T11:50:09;95263.25;;;7.08;94.52
19590;BME280;12231;42.782;23.388;2023-03-16T12:07:31;95264.03;;;7.58;95.36
19590;BME280;12231;42.782;23.388;2023-03-16T12:10:09;95270.09;;;7.24;94.41
19590;BME280;12231;42.782;23.388;2023-03-16T12:13:08;95278.16;;;7.49;92.81
19590;BME280;12231;42.782;23.388;2023-03-16T12:15:40;95274.22;;;6.94;95.88
19590;BME280;12231;42.782;23.388;2023-03-16T12:20:57;95277.41;;;7.15;94.43
19590;BME280;12231;42.782;23.388;2023-03-16T12:23:31;95279.06;;;6.49;95.86
19590;BME280;12231;42.782;23.388;2023-03-16T12:25:59;95277.63;;;6.77;95.85
19590;BME280;12231;42.782;23.388;2023-03-16T12:28:27;95287.19;;;6.74;95.34
19590;BME280;12231;42.782;23.388;2023-03-16T12:34:14;95292.63;;;6.34;96.70
19590;BME280;12231;42.782;23.388;2023-03-16T12:40:24;95291.19;;;6.62;96.47
19590;BME280;12231;42.782;23.388;2023-03-16T12:43:24;95295.94;;;6.53;96.82
19590;BME280;12231;42.782;23.388;2023-03-16T12:46:07;95301.41;;;6.28;98.32
19590;BME280;12231;42.782;23.388;2023-03-16T12:48:39;95308.41;;;6.25;98.49
19590;BME280;12231;42.782;23.388;2023-03-16T12:51:07;95310.00;;;6.27;99.09
19590;BME280;12231;42.782;23.388;2023-03-16T12:53:40;95305.06;;;6.06;100.00
19590;BME280;12231;42.782;23.388;2023-03-16T12:56:09;95309.94;;;6.10;99.78
19590;BME280;12231;42.782;23.388;2023-03-16T12:58:35;95307.06;;;6.18;98.57
19590;BME280;12231;42.782;23.388;2023-03-16T13:01:08;95317.81;;;5.89;100.00
19590;BME280;12231;42.782;23.388;2023-03-16T13:03:35;95310.69;;;5.95;99.56
19590;BME280;12231;42.782;23.388;2023-03-16T13:06:01;95312.47;;;5.93;99.98
19590;BME280;12231;42.782;23.388;2023-03-16T13:08:43;95317.72;;;5.72;100.00
19590;BME280;12231;42.782;23.388;2023-03-16T13:11:11;95307.63;;;5.69;100.00
19590;BME280;12231;42.782;23.388;2023-03-16T13:13:48;95304.25;;;5.87;100.00
19590;BME280;12231;42.782;23.388;2023-03-16T13:16:29;95307.53;;;5.51;100.00
19590;BME280;12231;42.782;23.388;2023-03-16T13:18:56;95309.34;;;5.49;100.00
19590;BME280;12231;42.782;23.388;2023-03-16T13:23:58;95321.19;;;5.71;100.00
19590;BME280;12231;42.782;23.388;2023-03-16T13:26:38;95317.41;;;5.22;100.00
19590;BME280;12231;42.782;23.388;2023-03-16T13:29:26;95324.06;;;5.44;100.00
19590;BME280;12231;42.782;23.388;2023-03-16T13:31:53;95330.19;;;5.22;100.00
19590;BME280;12231;42.782;23.388;2023-03-16T13:34:24;95328.66;;;4.98;100.00
19590;BME280;12231;42.782;23.388;2023-03-16T13:36:55;95335.38;;;4.60;100.00
19590;BME280;12231;42.782;23.388;2023-03-16T13:39:24;95334.97;;;4.69;100.00
19590;BME280;12231;42.782;23.388;2023-03-16T13:42:00;95326.84;;;4.81;100.00
19590;BME280;12231;42.782;23.388;2023-03-16T13:44:28;95331.28;;;4.76;100.00
19590;BME280;12231;42.782;23.388;2023-03-16T13:46:54;95340.59;;;4.97;100.00
19590;BME280;12231;42.782;23.388;2023-03-16T13:49:20;95335.16;;;5.05;100.00
19590;BME280;12231;42.782;23.388;2023-03-16T13:51:46;95326.22;;;5.15;100.00
19590;BME280;12231;42.782;23.388;2023-03-16T13:54:21;95340.94;;;4.70;100.00
19590;BME280;12231;42.782;23.388;2023-03-16T13:56:51;95344.59;;;5.03;100.00
19590;BME280;12231;42.782;23.388;2023-03-16T13:59:18;95345.16;;;5.29;100.00
19590;BME280;12231;42.782;23.388;2023-03-16T14:01:46;95341.03;;;5.45;100.00
19590;BME280;12231;42.782;23.388;2023-03-16T14:04:14;95342.69;;;5.46;100.00
19590;BME280;12231;42.782;23.388;2023-03-16T14:07:03;95350.09;;;5.52;100.00